TimeCST,TemperatureF,Dew PointF,Humidity,Sea Level PressureIn,VisibilityMPH,Wind Direction,Wind SpeedMPH,Gust SpeedMPH,PrecipitationIn,Events,Conditions,WindDirDegrees,DateUTC
12:55 AM,-5.1,-11.0,76,30.51,10.0,West,4.6,-,N/A,,Clear,260,2014-02-07 06:55:00
1:55 AM,-9.0,-14.1,79,30.50,10.0,West,4.6,-,N/A,,Clear,280,2014-02-07 07:55:00
2:55 AM,-9.9,-15.0,78,30.49,10.0,West,3.5,-,N/A,,Clear,260,2014-02-07 08:55:00
3:55 AM,-11.0,-17.0,75,30.50,10.0,WSW,3.5,-,N/A,,Clear,250,2014-02-07 09:55:00
4:55 AM,-9.9,-17.0,71,30.49,10.0,WSW,4.6,-,N/A,,Clear,240,2014-02-07 10:55:00
5:55 AM,-15.0,-20.9,75,30.50,10.0,West,4.6,-,N/A,,Overcast,260,2014-02-07 11:55:00
6:55 AM,-9.9,-16.1,74,30.50,10.0,WSW,4.6,-,N/A,,Overcast,250,2014-02-07 12:55:00
7:55 AM,-6.0,-11.9,75,30.50,10.0,SW,3.5,-,N/A,,Clear,230,2014-02-07 13:55:00
8:55 AM,-0.9,-7.1,75,30.51,10.0,SW,5.8,-,N/A,,Overcast,220,2014-02-07 14:55:00
9:55 AM,3.0,-5.1,69,30.52,10.0,SW,6.9,-,N/A,,Overcast,220,2014-02-07 15:55:00
10:55 AM,7.0,-2.9,64,30.50,10.0,SSE,4.6,-,N/A,,Scattered Clouds,150,2014-02-07 16:55:00
11:55 AM,10.9,-2.0,56,30.49,10.0,South,6.9,-,N/A,,Mostly Cloudy,170,2014-02-07 17:55:00
12:55 PM,10.9,-2.0,56,30.46,10.0,South,9.2,-,N/A,,Overcast,180,2014-02-07 18:55:00
1:55 PM,10.9,-4.0,51,30.43,10.0,South,6.9,-,N/A,,Overcast,190,2014-02-07 19:55:00
2:55 PM,12.0,-2.9,51,30.40,10.0,South,6.9,-,N/A,,Overcast,190,2014-02-07 20:55:00
3:55 PM,12.0,-4.0,49,30.40,10.0,SSW,5.8,-,N/A,,Overcast,200,2014-02-07 21:55:00
4:55 PM,12.0,-2.9,51,30.38,10.0,SSW,4.6,-,N/A,,Overcast,200,2014-02-07 22:55:00
5:55 PM,12.0,-2.9,51,30.38,10.0,SSW,3.5,-,N/A,,Overcast,200,2014-02-07 23:55:00
6:55 PM,12.0,-0.0,59,30.37,10.0,South,5.8,-,N/A,,Overcast,180,2014-02-08 00:55:00
7:55 PM,12.0,1.9,64,30.37,10.0,SSE,6.9,-,N/A,,Overcast,150,2014-02-08 01:55:00
8:55 PM,12.0,3.0,67,30.36,10.0,South,8.1,-,N/A,,Overcast,170,2014-02-08 02:55:00
9:55 PM,12.9,1.9,62,30.35,10.0,South,8.1,-,N/A,,Overcast,180,2014-02-08 03:55:00
10:55 PM,12.9,3.9,67,30.32,10.0,South,8.1,-,N/A,,Overcast,170,2014-02-08 04:55:00
11:37 PM,12.9,3.9,67,30.24,10.0,South,5.8,-,N/A,,Overcast,170,2014-02-08 05:37:00
11:55 PM,12.9,3.9,67,30.31,10.0,SSE,6.9,-,N/A,,Overcast,150,2014-02-08 05:55:00